Time,TemperatureF,DewpointF,PressureIn,WindDirection,WindDirectionDegrees,WindSpeedMPH,WindSpeedGustMPH,Humidity,HourlyPrecipIn,Conditions,Clouds,dailyrainin,SolarRadiationWatts/m^2,SoftwareType,DateUTC
2013-11-09 00:00:00,41.0,30.0,-100.00,SW,225,9.0,-999.0,66,-99.99,,,-99.99,0.000000,,2013-11-09 05:00:00,
2013-11-09 00:44:00,41.0,30.0,-100.00,SW,225,9.0,-999.0,66,-99.99,,,-99.99,0.000000,,2013-11-09 05:44:00,
2013-11-09 00:53:00,41.0,30.0,-100.00,SW,225,9.0,-999.0,66,-99.99,,,-99.99,0.000000,,2013-11-09 05:53:00,
2013-11-09 02:00:00,42.0,29.0,-100.00,WSW,247,12.0,-999.0,59,-99.99,,,-99.99,0.000000,,2013-11-09 07:00:00,
2013-11-09 02:42:00,42.0,29.0,-100.00,WSW,247,12.0,-999.0,59,-99.99,,,-99.99,0.000000,,2013-11-09 07:42:00,
2013-11-09 02:53:00,42.0,29.0,-100.00,WSW,247,12.0,-999.0,59,-99.99,,,-99.99,0.000000,,2013-11-09 07:53:00,
2013-11-09 03:00:00,44.0,28.0,-100.00,WNW,292,14.0,-999.0,54,-99.99,,,-99.99,0.000000,,2013-11-09 08:00:00,
2013-11-09 03:42:00,44.0,28.0,-100.00,WNW,292,14.0,-999.0,54,-99.99,,,-99.99,0.000000,,2013-11-09 08:42:00,
2013-11-09 03:52:00,44.0,28.0,-100.00,WNW,292,14.0,-999.0,54,-99.99,,,-99.99,0.000000,,2013-11-09 08:52:00,
2013-11-09 05:00:00,44.0,29.0,-100.00,WNW,292,15.0,-999.0,54,-99.99,,,-99.99,0.000000,,2013-11-09 10:00:00,
2013-11-09 05:43:00,44.0,29.0,-100.00,WNW,292,15.0,-999.0,54,-99.99,,,-99.99,0.000000,,2013-11-09 10:43:00,
2013-11-09 05:52:00,44.0,29.0,-100.00,WNW,292,15.0,-999.0,54,-99.99,,,-99.99,0.000000,,2013-11-09 10:52:00,
2013-11-09 06:00:00,43.0,29.0,-100.00,West,270,13.0,-999.0,56,-99.99,,,-99.99,0.000000,,2013-11-09 11:00:00,
2013-11-09 06:43:00,43.0,29.0,-100.00,West,270,13.0,-999.0,56,-99.99,,,-99.99,0.000000,,2013-11-09 11:43:00,
2013-11-09 06:52:00,43.0,29.0,-100.00,West,270,13.0,-999.0,56,-99.99,,,-99.99,0.000000,,2013-11-09 11:52:00,
2013-11-09 07:00:00,44.0,30.0,-100.00,SSW,202,10.0,-999.0,58,-99.99,,,-99.99,0.000000,,2013-11-09 12:00:00,
2013-11-09 07:42:00,44.0,30.0,-100.00,SSW,202,10.0,-999.0,58,-99.99,,,-99.99,0.000000,,2013-11-09 12:42:00,
2013-11-09 07:52:00,44.0,30.0,-100.00,SSW,202,10.0,-999.0,58,-99.99,,,-99.99,0.000000,,2013-11-09 12:52:00,
2013-11-09 09:00:00,46.0,33.0,-100.00,East,90,11.0,-999.0,59,-99.99,,,-99.99,134.559998,,2013-11-09 14:00:00,
2013-11-09 09:42:00,46.0,33.0,-100.00,East,90,11.0,-999.0,59,-99.99,,,-99.99,134.559998,,2013-11-09 14:42:00,
2013-11-09 09:52:00,46.0,33.0,-100.00,East,90,11.0,-999.0,59,-99.99,,,-99.99,134.559998,,2013-11-09 14:52:00,
2013-11-09 10:00:00,48.0,34.0,-100.00,ENE,67,13.0,-999.0,59,-99.99,,,-99.99,262.160004,,2013-11-09 15:00:00,
2013-11-09 10:44:00,48.0,34.0,-100.00,ENE,67,13.0,-999.0,59,-99.99,,,-99.99,262.160004,,2013-11-09 15:44:00,
2013-11-09 10:54:00,48.0,34.0,-100.00,ENE,67,13.0,-999.0,59,-99.99,,,-99.99,262.160004,,2013-11-09 15:54:00,
2013-11-09 11:00:00,49.0,36.0,-100.00,NE,45,13.0,-999.0,60,-99.99,,,-99.99,298.119995,,2013-11-09 16:00:00,
2013-11-09 11:43:00,49.0,36.0,-100.00,NE,45,13.0,-999.0,60,-99.99,,,-99.99,298.119995,,2013-11-09 16:43:00,
2013-11-09 11:53:00,49.0,36.0,-100.00,NE,45,13.0,-999.0,60,-99.99,,,-99.99,298.119995,,2013-11-09 16:53:00,
2013-11-09 12:00:00,52.0,38.0,-100.00,NE,45,16.0,-999.0,59,-99.99,,,-99.99,335.239990,,2013-11-09 17:00:00,
2013-11-09 12:44:00,52.0,38.0,-100.00,NE,45,16.0,-999.0,59,-99.99,,,-99.99,335.239990,,2013-11-09 17:44:00,
2013-11-09 12:52:00,52.0,38.0,-100.00,NE,45,16.0,-999.0,59,-99.99,,,-99.99,335.239990,,2013-11-09 17:52:00,
2013-11-09 13:00:00,52.0,38.0,-100.00,NE,45,17.0,-999.0,58,-99.99,,,-99.99,302.760010,,2013-11-09 18:00:00,
2013-11-09 13:42:00,52.0,38.0,-100.00,NE,45,17.0,-999.0,58,-99.99,,,-99.99,302.760010,,2013-11-09 18:42:00,
2013-11-09 13:52:00,52.0,38.0,-100.00,NE,45,17.0,-999.0,58,-99.99,,,-99.99,302.760010,,2013-11-09 18:52:00,
2013-11-09 14:00:00,53.0,38.0,-100.00,NE,45,18.0,-999.0,57,-99.99,,,-99.99,242.440002,,2013-11-09 19:00:00,
2013-11-09 14:42:00,53.0,38.0,-100.00,NE,45,18.0,-999.0,57,-99.99,,,-99.99,242.440002,,2013-11-09 19:42:00,
2013-11-09 14:52:00,53.0,38.0,-100.00,NE,45,18.0,-999.0,57,-99.99,,,-99.99,242.440002,,2013-11-09 19:52:00,
2013-11-09 16:00:00,53.0,39.0,-100.00,ENE,67,16.0,-999.0,57,-99.99,,,-99.99,74.239998,,2013-11-09 21:00:00,
2013-11-09 16:44:00,53.0,39.0,-100.00,ENE,67,16.0,-999.0,57,-99.99,,,-99.99,74.239998,,2013-11-09 21:44:00,
2013-11-09 16:54:00,53.0,39.0,-100.00,ENE,67,16.0,-999.0,57,-99.99,,,-99.99,74.239998,,2013-11-09 21:54:00,
2013-11-09 17:00:00,53.0,39.0,-100.00,ENE,67,14.0,-999.0,59,-99.99,,,-99.99,49.880001,,2013-11-09 22:00:00,
2013-11-09 17:43:00,53.0,39.0,-100.00,ENE,67,14.0,-999.0,59,-99.99,,,-99.99,49.880001,,2013-11-09 22:43:00,
2013-11-09 17:54:00,53.0,39.0,-100.00,ENE,67,14.0,-999.0,59,-99.99,,,-99.99,49.880001,,2013-11-09 22:54:00,
2013-11-09 18:00:00,52.0,38.0,-100.00,NE,45,13.0,-999.0,57,-99.99,,,-99.99,3.480000,,2013-11-09 23:00:00,
2013-11-09 18:42:00,52.0,38.0,-100.00,NE,45,13.0,-999.0,57,-99.99,,,-99.99,3.480000,,2013-11-09 23:42:00,
2013-11-09 18:53:00,52.0,38.0,-100.00,NE,45,13.0,-999.0,57,-99.99,,,-99.99,3.480000,,2013-11-09 23:53:00,
2013-11-09 19:00:00,52.0,39.0,-100.00,South,180,13.0,-999.0,61,-99.99,,,-99.99,0.000000,,2013-11-10 00:00:00,
2013-11-09 19:42:00,52.0,39.0,-100.00,South,180,13.0,-999.0,61,-99.99,,,-99.99,0.000000,,2013-11-10 00:42:00,
2013-11-09 19:52:00,52.0,39.0,-100.00,South,180,13.0,-999.0,61,-99.99,,,-99.99,0.000000,,2013-11-10 00:52:00,
2013-11-09 20:00:00,49.0,39.0,-100.00,SW,225,11.0,-999.0,67,-99.99,,,-99.99,0.000000,,2013-11-10 01:00:00,
2013-11-09 20:42:00,49.0,39.0,-100.00,SW,225,11.0,-999.0,67,-99.99,,,-99.99,0.000000,,2013-11-10 01:42:00,
2013-11-09 20:52:00,49.0,39.0,-100.00,SW,225,11.0,-999.0,67,-99.99,,,-99.99,0.000000,,2013-11-10 01:52:00,
2013-11-09 21:00:00,48.0,38.0,-100.00,SW,225,10.0,-999.0,67,-99.99,,,-99.99,0.000000,,2013-11-10 02:00:00,
2013-11-09 21:42:00,48.0,38.0,-100.00,SW,225,10.0,-999.0,67,-99.99,,,-99.99,0.000000,,2013-11-10 02:42:00,
2013-11-09 21:52:00,48.0,38.0,-100.00,SW,225,10.0,-999.0,67,-99.99,,,-99.99,0.000000,,2013-11-10 02:52:00,
2013-11-09 22:00:00,-999.0,-99.9,-100.00,SW,225,15.0,-999.0,-999,-99.99,,,-99.99,,,2013-11-10 03:00:00,
2013-11-09 22:44:00,48.0,36.0,-100.00,SW,225,15.0,-999.0,63,-99.99,,,-99.99,0.000000,,2013-11-10 03:44:00,
2013-11-09 22:54:00,48.0,36.0,-100.00,SW,225,15.0,-999.0,63,-99.99,,,-99.99,0.000000,,2013-11-10 03:54:00,
2013-11-09 23:00:00,47.0,35.0,-100.00,SW,225,15.0,-999.0,63,-99.99,,,-99.99,0.000000,,2013-11-10 04:00:00,
2013-11-09 23:43:00,47.0,35.0,-100.00,SW,225,15.0,-999.0,63,-99.99,,,-99.99,0.000000,,2013-11-10 04:43:00,
2013-11-09 23:52:00,47.0,35.0,-100.00,SW,225,15.0,-999.0,63,-99.99,,,-99.99,0.000000,,2013-11-10 04:52:00,